Time;durP1;ratioP1;P1;durP2;ratioP2;P2;SDS_P1;SDS_P2;PMS_P1;PMS_P2;Temp;Humidity;BMP_temperature;BMP_pressure;BME280_temperature;BME280_humidity;BME280_pressure;Samples;Min_cycle;Max_cycle;Signal;HPM_P1;HPM_P2
2021/01/07 00:00:06;;;;;;;8.88;7.07;;;4.30;99.90;;;;;;5036440;28;20207;-43
2021/01/07 00:02:38;;;;;;;8.23;7.28;;;4.40;99.90;;;;;;5053782;28;20219;-44
2021/01/07 00:05:07;;;;;;;8.50;7.32;;;4.40;99.90;;;;;;5054179;28;20192;-46
2021/01/07 00:07:34;;;;;;;9.43;7.55;;;4.40;99.90;;;;;;5054153;28;20616;-45
2021/01/07 00:10:01;;;;;;;7.78;6.40;;;4.20;99.90;;;;;;5054341;28;20196;-45
2021/01/07 00:12:28;;;;;;;8.30;7.28;;;3.90;99.90;;;;;;5053641;28;20227;-45
2021/01/07 00:14:54;;;;;;;9.68;7.32;;;4.10;99.90;;;;;;5054042;28;20206;-45
2021/01/07 00:17:21;;;;;;;8.77;7.10;;;4.10;99.90;;;;;;5053870;28;20192;-43
2021/01/07 00:19:47;;;;;;;8.60;6.43;;;4.10;99.90;;;;;;5054139;28;20211;-44
2021/01/07 00:22:15;;;;;;;7.15;6.30;;;3.80;99.90;;;;;;5053935;28;20204;-45
2021/01/07 00:24:41;;;;;;;7.07;6.35;;;3.80;99.90;;;;;;5053552;28;20305;-44
2021/01/07 00:27:08;;;;;;;7.80;6.43;;;4.20;99.90;;;;;;5053760;28;20554;-45
2021/01/07 00:29:35;;;;;;;7.93;7.13;;;3.50;99.90;;;;;;5053615;28;20188;-45
2021/01/07 00:32:01;;;;;;;9.18;7.05;;;3.90;99.90;;;;;;5053490;28;20212;-45
2021/01/07 00:34:28;;;;;;;6.55;5.57;;;4.20;99.90;;;;;;5053313;28;20635;-43
2021/01/07 00:36:55;;;;;;;7.00;6.30;;;4.20;99.90;;;;;;5035698;28;20207;-43
2021/01/07 00:39:24;;;;;;;7.78;6.63;;;4.20;99.90;;;;;;5053607;28;20188;-43
2021/01/07 00:41:55;;;;;;;6.90;6.18;;;4.20;99.90;;;;;;5053837;28;20195;-40
2021/01/07 00:44:22;;;;;;;6.50;5.90;;;4.10;99.90;;;;;;5035354;28;20234;-43
2021/01/07 00:46:49;;;;;;;5.90;5.30;;;3.40;99.90;;;;;;5054157;28;20498;-41
2021/01/07 00:49:16;;;;;;;7.40;5.75;;;4.00;99.90;;;;;;5054924;28;20616;-42
2021/01/07 00:51:43;;;;;;;6.97;6.05;;;4.00;99.90;;;;;;5057084;28;20223;-42
2021/01/07 00:54:10;;;;;;;8.38;6.35;;;4.00;99.90;;;;;;5039409;28;20234;-43
2021/01/07 00:56:38;;;;;;;8.32;6.95;;;3.90;99.90;;;;;;5038381;28;20224;-43
2021/01/07 00:59:08;;;;;;;6.72;6.03;;;4.20;99.90;;;;;;5038303;28;20680;-42
2021/01/07 01:01:43;;;;;;;6.65;5.50;;;3.90;99.90;;;;;;5055086;28;20199;-46
2021/01/07 01:04:09;;;;;;;7.75;6.53;;;4.20;99.90;;;;;;5057584;28;20242;-42
2021/01/07 01:06:36;;;;;;;6.25;5.65;;;4.10;99.90;;;;;;5055315;28;20703;-47
2021/01/07 01:09:04;;;;;;;6.30;5.65;;;4.20;99.90;;;;;;5052878;28;20245;-46
2021/01/07 01:11:36;;;;;;;6.25;5.57;;;4.20;99.90;;;;;;5052611;28;20226;-46
2021/01/07 01:14:04;;;;;;;6.88;6.13;;;4.10;99.90;;;;;;5051783;28;20222;-46
2021/01/07 01:16:31;;;;;;;7.15;6.18;;;4.00;99.90;;;;;;5034864;28;20200;-46
2021/01/07 01:18:57;;;;;;;6.53;5.82;;;3.90;99.90;;;;;;5034737;28;20254;-48
2021/01/07 01:21:24;;;;;;;7.20;5.80;;;4.10;99.90;;;;;;5052641;28;20680;-46
2021/01/07 01:23:50;;;;;;;6.65;5.93;;;3.90;99.90;;;;;;5052033;28;20688;-47
2021/01/07 01:26:17;;;;;;;7.68;6.63;;;4.00;99.90;;;;;;5052608;28;20196;-47
2021/01/07 01:28:44;;;;;;;5.97;5.18;;;4.10;99.90;;;;;;5034651;28;20200;-46
2021/01/07 01:31:12;;;;;;;5.90;5.30;;;4.30;99.90;;;;;;5052297;28;20192;-47
2021/01/07 01:33:38;;;;;;;6.25;5.53;;;4.10;99.90;;;;;;5052056;28;20211;-46
2021/01/07 01:36:06;;;;;;;6.38;5.53;;;3.90;99.90;;;;;;5052460;28;20525;-47
2021/01/07 01:38:32;;;;;;;5.90;5.30;;;3.90;99.90;;;;;;5034430;28;20588;-46
2021/01/07 01:41:03;;;;;;;6.53;5.93;;;4.20;99.90;;;;;;5052265;28;20222;-46
2021/01/07 01:43:29;;;;;;;5.57;5.07;;;4.20;99.90;;;;;;5051718;28;20216;-47
2021/01/07 01:45:56;;;;;;;7.72;5.78;;;4.10;99.90;;;;;;5052262;28;20212;-46
2021/01/07 01:48:26;;;;;;;6.03;5.43;;;4.00;99.90;;;;;;5052107;28;20184;-46
2021/01/07 01:50:53;;;;;;;6.45;5.75;;;3.90;99.90;;;;;;5052194;28;20683;-47
2021/01/07 01:53:21;;;;;;;6.32;5.72;;;4.20;99.90;;;;;;5051796;28;20220;-49
2021/01/07 01:55:49;;;;;;;6.05;5.47;;;3.90;99.90;;;;;;5051980;28;20668;-46
2021/01/07 01:58:16;;;;;;;5.80;5.20;;;4.00;99.90;;;;;;5051941;28;20687;-47
2021/01/07 02:00:42;;;;;;;6.75;6.05;;;4.30;99.90;;;;;;5052019;28;20287;-47
2021/01/07 02:03:10;;;;;;;5.90;5.40;;;3.90;99.90;;;;;;5051570;28;20614;-46
2021/01/07 02:05:38;;;;;;;5.63;4.93;;;4.00;99.90;;;;;;5034011;28;20208;-46
2021/01/07 02:08:06;;;;;;;4.70;4.30;;;4.10;99.90;;;;;;5052020;28;20196;-47
2021/01/07 02:10:34;;;;;;;5.30;4.80;;;4.10;99.90;;;;;;5051759;28;20558;-47
2021/01/07 02:13:03;;;;;;;5.65;4.55;;;4.00;99.90;;;;;;5051196;28;20281;-47
2021/01/07 02:15:29;;;;;;;5.78;5.25;;;4.10;99.90;;;;;;5051797;28;20199;-47
2021/01/07 02:17:56;;;;;;;5.55;4.55;;;3.90;99.90;;;;;;5051670;28;20281;-47
2021/01/07 02:20:28;;;;;;;5.00;4.60;;;3.90;99.90;;;;;;5051812;28;20215;-48
2021/01/07 02:22:55;;;;;;;5.90;5.30;;;4.10;99.90;;;;;;5051137;28;20227;-47
2021/01/07 02:25:23;;;;;;;5.90;5.20;;;3.40;99.90;;;;;;5033547;28;20223;-46
2021/01/07 02:27:50;;;;;;;5.43;4.72;;;4.10;99.90;;;;;;5051459;28;20782;-46
2021/01/07 02:30:19;;;;;;;5.78;5.07;;;4.00;99.90;;;;;;5051477;28;20196;-46
2021/01/07 02:32:47;;;;;;;6.63;6.03;;;4.10;99.90;;;;;;5033085;28;20231;-46
2021/01/07 02:35:13;;;;;;;6.15;5.15;;;3.30;99.90;;;;;;5051494;28;20188;-47
2021/01/07 02:37:41;;;;;;;6.05;5.43;;;3.80;99.90;;;;;;5051494;28;20192;-48
2021/01/07 02:40:09;;;;;;;5.72;5.00;;;3.60;99.90;;;;;;5051467;28;20198;-45
2021/01/07 02:42:36;;;;;;;5.45;4.95;;;3.90;99.90;;;;;;5033146;28;20207;-46
2021/01/07 02:45:04;;;;;;;5.70;5.15;;;4.10;99.90;;;;;;5033516;28;20204;-46
2021/01/07 02:47:30;;;;;;;6.20;5.60;;;3.60;99.90;;;;;;5051413;28;20219;-45
2021/01/07 02:49:57;;;;;;;5.00;4.50;;;3.90;99.90;;;;;;5051409;28;20199;-46
2021/01/07 02:52:23;;;;;;;5.65;5.05;;;4.00;99.90;;;;;;5050807;28;20232;-46
2021/01/07 02:54:51;;;;;;;5.68;5.18;;;3.90;99.90;;;;;;5051330;28;20199;-47
2021/01/07 02:57:17;;;;;;;5.20;4.70;;;3.90;99.90;;;;;;5051448;28;20192;-47
2021/01/07 02:59:44;;;;;;;6.00;4.35;;;4.40;99.90;;;;;;5051209;28;20196;-46
2021/01/07 03:02:10;;;;;;;5.90;5.10;;;4.20;99.90;;;;;;5051321;28;20606;-47
2021/01/07 03:04:37;;;;;;;5.40;4.90;;;4.10;99.90;;;;;;5050883;28;20262;-47
2021/01/07 03:07:03;;;;;;;6.03;5.43;;;4.00;99.90;;;;;;5051120;28;20549;-47
2021/01/07 03:09:30;;;;;;;7.07;6.38;;;4.20;99.90;;;;;;5051200;28;20199;-47
2021/01/07 03:11:57;;;;;;;5.78;5.22;;;4.10;99.90;;;;;;5033181;28;20311;-46
2021/01/07 03:14:24;;;;;;;5.50;4.70;;;3.90;99.90;;;;;;5050770;28;20222;-47
2021/01/07 03:16:50;;;;;;;6.35;5.55;;;3.70;99.90;;;;;;5051102;28;20195;-48
2021/01/07 03:19:17;;;;;;;7.00;6.30;;;4.10;99.90;;;;;;5051095;28;20219;-46
2021/01/07 03:21:43;;;;;;;8.35;6.65;;;3.80;99.90;;;;;;5051049;28;20567;-47
2021/01/07 03:24:10;;;;;;;7.47;6.68;;;4.10;99.90;;;;;;5051063;28;20243;-47
2021/01/07 03:26:37;;;;;;;8.13;6.63;;;4.10;99.90;;;;;;5051164;28;20192;-46
2021/01/07 03:29:04;;;;;;;6.30;5.70;;;4.00;99.90;;;;;;5033063;28;20196;-47
2021/01/07 03:31:31;;;;;;;5.65;5.10;;;4.10;99.90;;;;;;5050884;28;20212;-47
2021/01/07 03:33:58;;;;;;;6.30;5.70;;;4.10;99.90;;;;;;5050605;28;20208;-48
2021/01/07 03:36:24;;;;;;;5.95;5.45;;;4.20;99.90;;;;;;5034029;28;20200;-47
2021/01/07 03:38:51;;;;;;;6.00;5.25;;;4.20;99.90;;;;;;5036633;28;20303;-47
2021/01/07 03:41:17;;;;;;;5.53;4.93;;;4.30;99.90;;;;;;5054626;28;20615;-48
2021/01/07 03:43:44;;;;;;;6.20;5.40;;;4.30;99.90;;;;;;5054174;28;20559;-46
2021/01/07 03:46:11;;;;;;;7.88;6.30;;;4.30;99.90;;;;;;5054822;28;20196;-46
2021/01/07 03:48:38;;;;;;;6.63;5.78;;;3.60;99.90;;;;;;5054368;28;20196;-47
2021/01/07 03:51:05;;;;;;;6.18;5.28;;;4.00;99.90;;;;;;5054304;28;20199;-46
2021/01/07 03:53:32;;;;;;;6.28;5.60;;;4.00;99.90;;;;;;5053774;28;20262;-46
2021/01/07 03:55:58;;;;;;;6.05;5.13;;;4.10;99.90;;;;;;5053191;28;20673;-45
2021/01/07 03:58:25;;;;;;;6.63;5.55;;;4.00;99.90;;;;;;5053643;28;20672;-47
2021/01/07 04:00:52;;;;;;;7.50;5.82;;;4.00;99.90;;;;;;5053986;28;20281;-48
2021/01/07 04:03:19;;;;;;;6.28;5.45;;;4.00;99.90;;;;;;5053656;28;20619;-48
2021/01/07 04:05:46;;;;;;;6.68;6.00;;;3.90;99.90;;;;;;5054082;28;20200;-46
2021/01/07 04:08:12;;;;;;;5.95;4.93;;;4.00;99.90;;;;;;5053962;28;20199;-47
2021/01/07 04:10:39;;;;;;;6.13;5.53;;;3.90;99.90;;;;;;5053979;28;20536;-46
2021/01/07 04:13:05;;;;;;;7.65;6.18;;;3.90;99.90;;;;;;5053546;28;20224;-47
2021/01/07 04:15:32;;;;;;;6.43;5.78;;;3.90;99.90;;;;;;5053811;28;20238;-46
2021/01/07 04:17:58;;;;;;;9.50;7.15;;;4.00;99.90;;;;;;5053663;28;20196;-46
2021/01/07 04:20:26;;;;;;;9.23;7.00;;;4.10;99.90;;;;;;5053677;28;20192;-48
2021/01/07 04:22:52;;;;;;;9.45;6.97;;;3.90;99.90;;;;;;5053180;28;20471;-47
2021/01/07 04:25:19;;;;;;;6.45;5.45;;;3.90;99.90;;;;;;5053722;28;20192;-46
2021/01/07 04:27:45;;;;;;;7.78;6.25;;;3.80;99.90;;;;;;5053437;28;20199;-47
2021/01/07 04:30:13;;;;;;;8.77;7.15;;;3.90;99.90;;;;;;5053560;28;20192;-47
2021/01/07 04:32:40;;;;;;;8.20;6.80;;;3.60;99.90;;;;;;5035115;28;20701;-47
2021/01/07 04:35:08;;;;;;;7.85;6.90;;;3.20;99.90;;;;;;5053594;28;20635;-47
2021/01/07 04:37:35;;;;;;;9.82;7.43;;;3.80;99.90;;;;;;5035278;28;20755;-47
2021/01/07 04:40:02;;;;;;;10.02;8.18;;;3.90;99.90;;;;;;5035441;28;20204;-47
2021/01/07 04:42:29;;;;;;;13.07;7.47;;;3.90;99.90;;;;;;5052980;28;20738;-47
2021/01/07 04:44:56;;;;;;;9.25;7.45;;;3.70;99.90;;;;;;5035052;28;20293;-47
2021/01/07 04:47:23;;;;;;;11.18;7.93;;;3.80;99.90;;;;;;5052303;28;20196;-46
2021/01/07 04:49:52;;;;;;;11.23;7.88;;;4.00;99.90;;;;;;5052774;28;20227;-47
2021/01/07 04:52:18;;;;;;;8.98;7.22;;;4.20;99.90;;;;;;5052686;28;20619;-47
2021/01/07 04:54:46;;;;;;;15.68;8.05;;;3.90;99.90;;;;;;5053074;28;20238;-47
2021/01/07 04:57:12;;;;;;;10.50;7.95;;;4.00;99.90;;;;;;5035093;28;20207;-47
2021/01/07 04:59:39;;;;;;;11.20;8.38;;;3.90;99.90;;;;;;5052965;28;20200;-46
2021/01/07 05:02:06;;;;;;;9.68;8.15;;;3.80;99.90;;;;;;5052803;28;20241;-47
2021/01/07 05:04:47;;;;;;;10.63;8.70;;;3.70;99.90;;;;;;5052406;28;20749;-47
2021/01/07 05:07:15;;;;;;;10.68;8.32;;;4.10;99.90;;;;;;5034709;28;20752;-47
2021/01/07 05:09:41;;;;;;;10.38;7.88;;;3.70;99.90;;;;;;5052696;28;20192;-47
2021/01/07 05:12:09;;;;;;;11.35;9.25;;;3.70;99.90;;;;;;5053221;28;20285;-48
2021/01/07 05:14:42;;;;;;;13.77;9.88;;;3.60;99.90;;;;;;5052171;28;20277;-47
2021/01/07 05:17:10;;;;;;;9.88;8.07;;;3.60;99.90;;;;;;5052484;28;20535;-46
2021/01/07 05:19:37;;;;;;;11.32;8.27;;;3.90;99.90;;;;;;5052658;28;20192;-47
2021/01/07 05:22:04;;;;;;;12.40;9.40;;;4.00;99.90;;;;;;5052562;28;20188;-47
2021/01/07 05:24:30;;;;;;;11.85;9.63;;;4.00;99.90;;;;;;5051946;28;20224;-47
2021/01/07 05:26:57;;;;;;;10.32;8.02;;;3.80;99.90;;;;;;5052562;28;20199;-47
2021/01/07 05:29:25;;;;;;;11.05;8.80;;;3.90;99.90;;;;;;5052655;28;20184;-43
2021/01/07 05:31:53;;;;;;;11.77;8.05;;;3.70;99.90;;;;;;5057208;28;20676;-44
2021/01/07 05:34:19;;;;;;;11.20;8.48;;;3.80;99.90;;;;;;5055745;28;20290;-47
2021/01/07 05:36:46;;;;;;;12.25;9.50;;;3.90;99.90;;;;;;5052213;28;20199;-47
2021/01/07 05:39:12;;;;;;;10.90;8.43;;;3.60;99.90;;;;;;5052134;28;20195;-47
2021/01/07 05:41:39;;;;;;;10.98;9.27;;;4.00;99.90;;;;;;5052333;28;20299;-47
2021/01/07 05:44:08;;;;;;;15.52;11.18;;;3.90;99.90;;;;;;5051729;28;20212;-47
2021/01/07 05:46:36;;;;;;;11.38;9.13;;;3.70;99.90;;;;;;5051738;28;20207;-47
2021/01/07 05:49:03;;;;;;;12.43;9.65;;;3.60;99.90;;;;;;5051730;28;20199;-47
2021/01/07 05:51:31;;;;;;;11.93;8.32;;;3.90;99.90;;;;;;5051702;28;20668;-47
2021/01/07 05:53:58;;;;;;;10.95;8.50;;;3.60;99.90;;;;;;5051715;28;20212;-47
2021/01/07 05:56:26;;;;;;;12.38;9.20;;;3.40;99.90;;;;;;5051782;28;20242;-46
2021/01/07 05:58:55;;;;;;;11.23;8.57;;;3.90;99.90;;;;;;5034055;28;20864;-47
2021/01/07 06:01:23;;;;;;;11.05;8.68;;;3.80;99.90;;;;;;5051853;28;20192;-46
2021/01/07 06:03:52;;;;;;;14.43;11.25;;;3.60;99.90;;;;;;5051402;28;20247;-47
2021/01/07 06:06:20;;;;;;;13.05;9.02;;;3.60;99.90;;;;;;5051474;28;20254;-46
2021/01/07 06:08:49;;;;;;;11.85;9.30;;;3.30;99.90;;;;;;5051484;28;20207;-48
2021/01/07 06:11:17;;;;;;;11.05;9.52;;;3.50;99.90;;;;;;5051550;28;20653;-47
2021/01/07 06:13:44;;;;;;;13.38;8.80;;;3.90;99.90;;;;;;5050983;28;20636;-47
2021/01/07 06:16:12;;;;;;;11.20;8.77;;;3.80;99.90;;;;;;5033562;28;20677;-46
2021/01/07 06:18:39;;;;;;;11.77;8.70;;;3.50;99.90;;;;;;5051410;28;20192;-46
2021/01/07 06:21:08;;;;;;;12.60;8.70;;;3.70;99.90;;;;;;5051418;28;20200;-46
2021/01/07 06:23:42;;;;;;;13.02;8.68;;;3.60;99.90;;;;;;5050892;28;20229;-46
2021/01/07 06:26:18;;;;;;;12.88;9.70;;;3.70;99.90;;;;;;5051568;28;20335;-46
2021/01/07 06:28:46;;;;;;;13.02;10.35;;;3.60;99.90;;;;;;5051233;28;20203;-47
2021/01/07 06:31:15;;;;;;;14.10;8.50;;;3.80;99.90;;;;;;5051202;28;20200;-45
2021/01/07 06:33:42;;;;;;;12.15;9.25;;;3.60;99.90;;;;;;5050848;28;20224;-46
2021/01/07 06:36:11;;;;;;;12.88;9.40;;;3.70;99.90;;;;;;5051220;28;20199;-46
2021/01/07 06:38:49;;;;;;;12.15;9.65;;;3.80;99.90;;;;;;5051080;28;20230;-45
2021/01/07 06:41:18;;;;;;;12.25;9.90;;;3.80;99.90;;;;;;5051184;28;20192;-47
2021/01/07 06:43:47;;;;;;;11.88;9.02;;;3.80;99.90;;;;;;5050504;28;20286;-47
2021/01/07 06:46:38;;;;;;;11.07;8.25;;;3.70;99.90;;;;;;5051208;28;20706;-48
2021/01/07 06:49:20;;;;;;;11.93;8.45;;;3.50;99.90;;;;;;5051115;28;20249;-46
2021/01/07 06:51:52;;;;;;;12.63;8.65;;;3.80;99.90;;;;;;5033163;28;20212;-47
2021/01/07 06:54:19;;;;;;;12.93;9.55;;;3.60;99.90;;;;;;5050792;28;20222;-48
2021/01/07 06:56:52;;;;;;;12.75;10.00;;;3.50;99.90;;;;;;5050976;28;20207;-47
2021/01/07 06:59:20;;;;;;;12.55;9.60;;;3.60;99.90;;;;;;5051080;28;20200;-47
2021/01/07 07:01:50;;;;;;;15.93;9.57;;;3.80;99.90;;;;;;5051246;28;20197;-47
2021/01/07 07:04:28;;;;;;;12.57;8.75;;;3.60;99.90;;;;;;5050826;28;20211;-46
2021/01/07 07:07:03;;;;;;;11.50;9.23;;;3.80;99.90;;;;;;5051330;28;20180;-47
2021/01/07 07:09:39;;;;;;;11.75;9.77;;;3.80;99.90;;;;;;5050961;28;20213;-47
2021/01/07 07:12:07;;;;;;;12.45;10.02;;;3.60;99.90;;;;;;5052950;28;20573;-47
2021/01/07 07:14:34;;;;;;;11.27;9.23;;;3.90;99.90;;;;;;5054664;28;20211;-46
2021/01/07 07:17:07;;;;;;;13.65;9.07;;;3.80;99.90;;;;;;5054584;28;20698;-46
2021/01/07 07:19:37;;;;;;;10.30;9.07;;;3.60;99.90;;;;;;5054640;28;20623;-46
2021/01/07 07:22:09;;;;;;;16.05;10.18;;;3.60;99.90;;;;;;5054680;28;20192;-46
2021/01/07 07:24:37;;;;;;;12.30;10.13;;;3.40;99.90;;;;;;5054275;28;20707;-46
2021/01/07 07:27:08;;;;;;;11.38;9.52;;;3.70;99.90;;;;;;5054177;28;20250;-46
2021/01/07 07:29:36;;;;;;;11.18;9.07;;;3.60;99.90;;;;;;5054418;28;20208;-46
2021/01/07 07:32:21;;;;;;;13.02;9.80;;;4.10;99.90;;;;;;5054447;28;20235;-46
2021/01/07 07:34:49;;;;;;;17.67;11.30;;;3.90;99.90;;;;;;5054419;28;20228;-46
2021/01/07 07:37:21;;;;;;;17.98;10.75;;;4.10;99.90;;;;;;5054495;28;20238;-46
2021/01/07 07:39:50;;;;;;;10.23;8.77;;;3.90;99.90;;;;;;5054201;28;20672;-46
2021/01/07 07:42:17;;;;;;;11.02;8.68;;;4.10;99.90;;;;;;5036126;28;20200;-47
2021/01/07 07:44:44;;;;;;;13.65;9.00;;;4.10;99.90;;;;;;5054220;28;20354;-47
2021/01/07 07:47:11;;;;;;;13.55;10.82;;;4.00;99.90;;;;;;5054664;28;20470;-47
2021/01/07 07:49:37;;;;;;;13.82;9.57;;;4.00;99.90;;;;;;5053935;28;20262;-47
2021/01/07 07:52:04;;;;;;;9.40;7.70;;;3.90;99.90;;;;;;5054198;28;20578;-46
2021/01/07 07:54:32;;;;;;;11.05;8.95;;;4.00;99.90;;;;;;5053403;28;20306;-47
2021/01/07 07:57:00;;;;;;;10.68;8.20;;;4.10;99.90;;;;;;5053838;28;20195;-48
2021/01/07 07:59:27;;;;;;;13.55;9.10;;;4.20;99.90;;;;;;5054221;28;20549;-46
2021/01/07 08:01:55;;;;;;;13.25;9.25;;;4.00;99.90;;;;;;5035793;28;20204;-47
2021/01/07 08:04:23;;;;;;;12.18;9.52;;;4.20;99.90;;;;;;5053967;28;20261;-48
2021/01/07 08:06:51;;;;;;;11.88;9.63;;;3.90;99.90;;;;;;5053847;28;20199;-48
2021/01/07 08:09:19;;;;;;;11.27;9.10;;;3.90;99.90;;;;;;5053955;28;20238;-45
2021/01/07 08:11:48;;;;;;;16.00;9.75;;;3.90;99.90;;;;;;5054151;28;20655;-46
2021/01/07 08:14:20;;;;;;;13.05;8.85;;;4.10;99.90;;;;;;5053188;28;20212;-47
2021/01/07 08:16:49;;;;;;;11.27;9.63;;;4.10;99.90;;;;;;5053463;28;20196;-47
2021/01/07 08:19:20;;;;;;;13.68;9.10;;;3.90;99.90;;;;;;5053468;28;20200;-47
2021/01/07 08:21:49;;;;;;;12.65;10.13;;;4.00;99.90;;;;;;5035486;28;20625;-46
2021/01/07 08:24:18;;;;;;;15.98;11.20;;;3.80;99.90;;;;;;5052786;28;20645;-46
2021/01/07 08:26:57;;;;;;;12.82;8.73;;;4.10;99.90;;;;;;5053748;28;20576;-47
2021/01/07 08:29:26;;;;;;;10.45;8.50;;;3.60;99.90;;;;;;5053331;28;20200;-46
2021/01/07 08:31:54;;;;;;;16.85;11.68;;;4.10;99.90;;;;;;5052842;28;20218;-46
2021/01/07 08:34:23;;;;;;;14.27;9.75;;;3.60;99.90;;;;;;5052724;28;20743;-47
2021/01/07 08:36:50;;;;;;;11.75;10.52;;;3.60;99.90;;;;;;5053223;28;20196;-46
2021/01/07 08:39:17;;;;;;;13.95;10.55;;;3.90;99.90;;;;;;5053361;28;20294;-46
2021/01/07 08:41:45;;;;;;;14.73;10.75;;;3.90;99.90;;;;;;5053243;28;20204;-43
2021/01/07 08:44:13;;;;;;;15.75;11.50;;;3.80;99.90;;;;;;5052830;28;20298;-43
2021/01/07 08:46:41;;;;;;;13.85;9.90;;;3.90;99.90;;;;;;5053399;28;20188;-44
2021/01/07 08:49:09;;;;;;;11.65;9.40;;;3.80;99.90;;;;;;5053463;28;20196;-46
2021/01/07 08:51:40;;;;;;;16.05;10.13;;;3.80;99.90;;;;;;5053038;28;20200;-47
2021/01/07 08:54:12;;;;;;;14.00;10.38;;;3.70;99.90;;;;;;5052516;28;20216;-48
2021/01/07 08:56:40;;;;;;;21.23;9.93;;;4.10;99.90;;;;;;5052540;28;20200;-47
2021/01/07 08:59:27;;;;;;;15.45;10.25;;;4.10;99.90;;;;;;5052367;28;20299;-48
2021/01/07 09:01:56;;;;;;;26.33;9.52;;;3.90;99.90;;;;;;5054106;28;20896;-44
2021/01/07 09:04:31;;;;;;;15.60;8.15;;;4.00;99.90;;;;;;5055205;28;20223;-47
2021/01/07 09:07:04;;;;;;;12.68;8.95;;;3.80;99.90;;;;;;5052855;28;20196;-45
2021/01/07 09:09:43;;;;;;;12.00;8.40;;;4.10;99.90;;;;;;5034928;28;20302;-45
2021/01/07 09:12:15;;;;;;;13.93;8.23;;;3.80;99.90;;;;;;5053127;28;20258;-43
2021/01/07 09:14:54;;;;;;;12.38;9.15;;;3.60;99.90;;;;;;5053505;28;20219;-43
2021/01/07 09:17:23;;;;;;;10.13;8.18;;;3.90;99.90;;;;;;5053703;28;20270;-43
2021/01/07 09:19:50;;;;;;;12.13;8.95;;;3.90;99.90;;;;;;5052739;28;20200;-47
2021/01/07 09:22:22;;;;;;;33.22;19.98;;;4.10;99.90;;;;;;5052031;28;20195;-47
2021/01/07 09:24:49;;;;;;;12.95;8.77;;;3.30;99.90;;;;;;5053029;28;20192;-46
2021/01/07 09:27:17;;;;;;;10.50;9.13;;;4.00;99.90;;;;;;5052323;28;20199;-47
2021/01/07 09:29:45;;;;;;;11.65;8.90;;;3.80;99.90;;;;;;5052270;28;20203;-46
2021/01/07 09:32:13;;;;;;;17.73;8.88;;;4.10;99.90;;;;;;5052243;28;20275;-46
2021/01/07 09:34:40;;;;;;;13.85;8.43;;;4.20;99.90;;;;;;5033442;28;20223;-47
2021/01/07 09:37:10;;;;;;;11.45;8.35;;;3.90;99.90;;;;;;5052246;28;20196;-46
2021/01/07 09:39:37;;;;;;;11.10;8.85;;;3.50;99.90;;;;;;5052099;28;20566;-48
2021/01/07 09:42:05;;;;;;;13.75;9.07;;;3.90;99.90;;;;;;5051993;28;20204;-49
2021/01/07 09:44:32;;;;;;;15.60;8.90;;;4.00;99.90;;;;;;5051316;28;20315;-47
2021/01/07 09:47:00;;;;;;;10.27;7.78;;;4.10;99.90;;;;;;5033756;28;20200;-44
2021/01/07 09:49:27;;;;;;;10.15;8.43;;;4.00;99.90;;;;;;5052244;28;20269;-43
2021/01/07 09:51:54;;;;;;;11.52;8.32;;;4.20;99.90;;;;;;5052909;28;20192;-43
2021/01/07 09:54:23;;;;;;;11.55;8.48;;;3.80;99.90;;;;;;5051717;28;20207;-47
2021/01/07 09:56:54;;;;;;;15.02;7.20;;;4.20;99.90;;;;;;5051794;28;20211;-47
2021/01/07 09:59:21;;;;;;;16.08;8.38;;;4.40;99.90;;;;;;5033748;28;20250;-47
2021/01/07 10:01:51;;;;;;;8.02;6.60;;;4.20;99.90;;;;;;5051853;28;20200;-47
2021/01/07 10:04:19;;;;;;;11.45;8.65;;;4.00;99.90;;;;;;5051430;28;20623;-46
2021/01/07 10:06:46;;;;;;;12.07;7.60;;;3.90;99.90;;;;;;5033734;28;20722;-47
2021/01/07 10:09:13;;;;;;;13.30;7.75;;;3.40;99.90;;;;;;5051388;28;20196;-46
2021/01/07 10:11:39;;;;;;;12.43;8.07;;;4.10;99.90;;;;;;5051868;28;20208;-46
2021/01/07 10:14:06;;;;;;;13.90;8.18;;;3.40;99.90;;;;;;5051142;28;20219;-46
2021/01/07 10:16:32;;;;;;;15.95;7.75;;;4.00;99.90;;;;;;5051878;28;20657;-47
2021/01/07 10:19:00;;;;;;;12.05;7.50;;;3.90;99.90;;;;;;5051604;28;20200;-46
2021/01/07 10:21:31;;;;;;;17.20;8.05;;;4.20;99.90;;;;;;5051414;28;20203;-47
2021/01/07 10:23:59;;;;;;;11.00;7.95;;;4.40;99.90;;;;;;5050671;28;20236;-47
2021/01/07 10:26:26;;;;;;;14.73;7.93;;;4.20;99.90;;;;;;5051536;28;20199;-46
2021/01/07 10:28:52;;;;;;;16.33;9.10;;;4.30;99.90;;;;;;5051459;28;20245;-46
2021/01/07 10:31:19;;;;;;;17.05;7.43;;;4.20;99.90;;;;;;5051440;28;20337;-46
2021/01/07 10:33:47;;;;;;;8.30;6.50;;;4.00;99.90;;;;;;5050883;28;20719;-46
2021/01/07 10:36:15;;;;;;;12.63;6.60;;;4.10;99.90;;;;;;5051211;28;20212;-46
2021/01/07 10:38:43;;;;;;;20.23;7.82;;;4.00;99.90;;;;;;5051372;28;20188;-47
2021/01/07 10:41:09;;;;;;;9.48;7.57;;;4.10;99.90;;;;;;5051593;28;20199;-46
2021/01/07 10:43:36;;;;;;;10.15;6.78;;;4.20;99.90;;;;;;5050597;28;20284;-46
2021/01/07 10:46:03;;;;;;;9.73;6.45;;;4.20;99.90;;;;;;5051764;28;20275;-47
2021/01/07 10:48:31;;;;;;;11.35;8.43;;;4.00;99.90;;;;;;5054986;28;20188;-47
2021/01/07 10:51:02;;;;;;;10.57;7.30;;;4.20;99.90;;;;;;5055704;28;20471;-49
2021/01/07 10:54:00;;;;;;;15.48;7.90;;;4.20;99.90;;;;;;5036859;28;20236;-48
2021/01/07 10:56:50;;;;;;;6.68;5.70;;;4.30;99.90;;;;;;5049411;28;20199;-47
2021/01/07 10:59:42;;;;;;;9.18;7.10;;;4.20;99.90;;;;;;5035243;28;20738;-46
2021/01/07 11:02:37;;;;;;;7.82;6.22;;;4.30;99.90;;;;;;5055927;28;20262;-45
2021/01/07 11:05:13;;;;;;;8.55;6.63;;;4.20;99.90;;;;;;5055100;28;20219;-47
2021/01/07 11:08:00;;;;;;;9.85;6.85;;;4.30;99.90;;;;;;5054874;28;20191;-48
2021/01/07 11:10:29;;;;;;;9.40;6.28;;;4.40;99.90;;;;;;5036853;28;20208;-45
2021/01/07 11:12:59;;;;;;;10.05;6.65;;;4.30;99.90;;;;;;5056964;28;20254;-45
2021/01/07 11:15:28;;;;;;;8.07;6.55;;;4.30;99.90;;;;;;5057925;28;20188;-45
2021/01/07 11:17:59;;;;;;;8.10;6.28;;;4.40;99.90;;;;;;5056013;28;20579;-47
2021/01/07 11:20:28;;;;;;;7.80;5.90;;;4.30;99.90;;;;;;5055002;28;20606;-46
2021/01/07 11:22:57;;;;;;;6.68;5.20;;;4.10;99.90;;;;;;5057110;28;20212;-45
2021/01/07 11:25:25;;;;;;;9.20;5.85;;;4.40;99.90;;;;;;5058075;28;20200;-46
2021/01/07 11:27:56;;;;;;;8.40;6.25;;;4.40;99.90;;;;;;5058092;28;20215;-45
2021/01/07 11:30:24;;;;;;;8.57;6.68;;;4.30;99.90;;;;;;5057960;28;20529;-47
2021/01/07 11:32:51;;;;;;;7.57;6.55;;;4.20;99.90;;;;;;5055368;28;20257;-46
2021/01/07 11:35:17;;;;;;;9.02;6.50;;;4.20;99.90;;;;;;5054739;28;20184;-46
2021/01/07 11:37:57;;;;;;;8.27;6.38;;;4.20;99.90;;;;;;5054321;28;20220;-45
2021/01/07 11:40:26;;;;;;;7.40;6.22;;;4.20;99.90;;;;;;5052228;28;20617;-47
2021/01/07 11:43:32;;;;;;;12.23;6.88;;;4.40;99.90;;;;;;5053470;28;20216;-46
2021/01/07 11:46:01;;;;;;;9.32;7.65;;;4.50;99.90;;;;;;5033583;28;20230;-48
2021/01/07 11:48:30;;;;;;;8.68;6.07;;;4.20;99.90;;;;;;5042756;28;20520;-47
2021/01/07 11:51:03;;;;;;;8.68;6.60;;;4.30;99.90;;;;;;5054017;28;20199;-48
2021/01/07 11:53:30;;;;;;;8.90;6.93;;;4.30;99.90;;;;;;5053515;28;20294;-46
2021/01/07 11:55:58;;;;;;;8.57;7.00;;;4.60;99.90;;;;;;5053886;28;20279;-44
2021/01/07 11:58:27;;;;;;;9.35;6.75;;;5.00;99.90;;;;;;5056696;28;20192;-48
2021/01/07 12:00:59;;;;;;;9.88;7.05;;;4.90;99.90;;;;;;5054802;28;20206;-48
2021/01/07 12:03:30;;;;;;;8.68;7.05;;;4.20;99.90;;;;;;5055298;28;20212;-44
2021/01/07 12:06:00;;;;;;;7.53;6.32;;;4.30;99.90;;;;;;5055600;28;20515;-43
2021/01/07 12:08:48;;;;;;;11.48;7.30;;;4.40;99.90;;;;;;5036344;28;20594;-44
2021/01/07 12:11:22;;;;;;;10.40;8.38;;;4.80;99.90;;;;;;5045027;28;20623;-43
2021/01/07 12:13:57;;;;;;;12.55;8.57;;;4.50;99.90;;;;;;5052727;28;20295;-44
2021/01/07 12:16:29;;;;;;;10.23;7.95;;;4.60;99.90;;;;;;5054456;28;20275;-46
2021/01/07 12:18:57;;;;;;;11.27;8.52;;;4.40;99.90;;;;;;5053684;28;20279;-44
2021/01/07 12:21:27;;;;;;;9.45;8.45;;;4.40;99.90;;;;;;5052432;28;20207;-46
2021/01/07 12:23:55;;;;;;;26.52;17.38;;;4.50;99.90;;;;;;5053299;28;20285;-46
2021/01/07 12:26:22;;;;;;;10.23;8.02;;;4.50;99.90;;;;;;5054215;28;20192;-46
2021/01/07 12:28:52;;;;;;;10.07;8.73;;;4.30;99.90;;;;;;5052759;28;20210;-45
2021/01/07 12:31:20;;;;;;;11.20;7.47;;;4.50;99.90;;;;;;5054057;28;20202;-47
2021/01/07 12:34:07;;;;;;;10.00;8.35;;;4.30;99.90;;;;;;5052591;28;20481;-46
2021/01/07 12:36:57;;;;;;;8.02;7.22;;;4.20;99.90;;;;;;5051280;28;20526;-46
2021/01/07 12:39:31;;;;;;;12.93;8.70;;;4.50;99.90;;;;;;5053214;28;20196;-46
2021/01/07 12:41:58;;;;;;;10.48;7.78;;;4.30;99.90;;;;;;5035063;28;20214;-48
2021/01/07 12:44:29;;;;;;;10.80;8.07;;;4.70;99.90;;;;;;5052345;28;20310;-47
2021/01/07 12:46:56;;;;;;;11.90;9.80;;;4.20;99.90;;;;;;5052968;28;20214;-46
2021/01/07 12:49:23;;;;;;;12.05;9.05;;;4.20;99.90;;;;;;5052802;28;20212;-46
2021/01/07 12:51:51;;;;;;;12.13;8.82;;;4.10;99.90;;;;;;5052833;28;20204;-47
2021/01/07 12:54:19;;;;;;;10.40;8.50;;;4.50;99.90;;;;;;5034266;28;20224;-42
2021/01/07 12:56:55;;;;;;;11.48;9.52;;;4.20;99.90;;;;;;5052658;28;20248;-43
2021/01/07 12:59:28;;;;;;;16.17;10.23;;;4.80;99.90;;;;;;5053191;28;20199;-44